2001 FAXAI (2001347N04162)


On this page: IBTrACS data - Map and Plots - Positions - Intensities - Original source data

Summary

Start Dec 13
End Dec 26
Basin WP
LMI 155 kt
Sources jtwc_wp
tokyo
cma
hko
In WMO? Yes
Previous storm 2001 MISSING (WP)
Previous in basin 2001 MISSING (WP)
Concurrent storms 2001 FAXAI (WP)
2002 VICKY (SP)
2001 VAMEI (WP)
Next in basin 2001 VAMEI (WP)
Next storm 2002 VICKY (SP)

top of page IBTrACS Data: File Access

top of page HURSAT Data: File Access

Image of storm

top of page Plots:

Map of storm track will not appear if FTP is down
Time series of cyclone Maximum Sustained Wind will not appear if FTP is down
Time series of cyclone Minimum Central Pressure will not appear if FTP is down

top of page Track Data:Position

jtwc_wp tokyo cma hko
Date Lat Lon Lat Lon Lat Lon Lat Lon
2001-12-13 06:00:00 4.2 162.0
2001-12-13 12:00:00 4.4 162.6
2001-12-13 18:00:00 4.8 162.5 4.9 162.3
2001-12-14 00:00:00 5.1 162.4 5.0 162.2
2001-12-14 06:00:00 5.1 162.2 5.0 162.0
2001-12-14 12:00:00 5.1 162.1 5.0 161.9
2001-12-14 18:00:00 5.1 162.1 4.9 161.9
2001-12-15 00:00:00 5.1 162.1 4.8 162.3 4.8 162.3
2001-12-15 06:00:00 5.2 162.1 5.1 162.3 4.8 162.3
2001-12-15 12:00:00 5.2 161.9 5.3 161.9 4.8 162.3
2001-12-15 18:00:00 5.3 161.7 5.3 161.9 4.8 162.3
2001-12-16 00:00:00 5.3 161.5 5.4 161.7 5.5 161.6 5.1 160.9
2001-12-16 06:00:00 5.4 161.5 5.5 161.6 5.5 161.6 5.2 161.0
2001-12-16 12:00:00 5.5 161.5 5.5 161.6 5.5 161.6 5.3 161.1
2001-12-16 18:00:00 5.6 161.5 5.5 161.6 5.5 161.6 5.4 161.3
2001-12-17 00:00:00 5.7 161.5 5.6 161.6 5.5 161.6 5.7 161.5
2001-12-17 06:00:00 5.8 161.4 5.8 161.3 5.9 161.0 5.9 161.4
2001-12-17 12:00:00 5.8 161.3 5.9 161.1 5.9 161.0 6.1 161.2
2001-12-17 18:00:00 5.8 161.2 5.9 161.0 5.9 161.0 6.1 161.0
2001-12-18 00:00:00 5.8 161.3 5.9 161.0 5.9 161.0 6.0 160.8
2001-12-18 06:00:00 5.7 161.5 5.9 161.0 5.9 161.0 5.8 160.7
2001-12-18 12:00:00 5.7 161.7 5.7 161.5 6.1 161.5 5.6 161.0
2001-12-18 18:00:00 5.8 162.0 5.8 162.0 6.2 162.0 5.6 161.4
2001-12-19 00:00:00 6.0 162.2 6.1 162.1 6.2 162.0 5.8 161.8
2001-12-19 06:00:00 6.1 162.2 6.1 162.2 6.6 162.3 5.9 162.0
jtwc_wp tokyo cma hko
2001-12-19 12:00:00 6.3 162.1 6.2 162.2 6.6 162.3 6.1 162.1
2001-12-19 18:00:00 6.6 161.8 6.3 162.3 6.6 162.3 6.3 162.1
2001-12-20 00:00:00 7.1 161.3 7.2 161.5 7.2 161.5 7.1 161.5
2001-12-20 06:00:00 7.7 160.7 7.8 160.6 7.7 160.7 7.7 160.7
2001-12-20 12:00:00 8.1 159.8 8.2 159.8 8.1 159.8 8.2 159.9
2001-12-20 18:00:00 8.6 159.0 8.6 159.2 8.6 159.1 8.7 159.2
2001-12-21 00:00:00 9.2 158.2 9.1 158.4 9.1 158.4 9.2 158.5
2001-12-21 06:00:00 9.9 157.5 9.9 157.8 9.7 157.7 9.8 157.7
2001-12-21 12:00:00 10.5 156.7 10.6 156.8 10.5 156.8 10.4 156.8
2001-12-21 18:00:00 11.1 155.9 11.0 155.9 11.0 155.9 11.0 155.9
2001-12-22 00:00:00 11.6 155.0 11.7 155.1 11.6 155.1 11.6 155.0
2001-12-22 06:00:00 12.3 153.9 12.4 153.9 12.4 153.9 12.3 153.9
2001-12-22 12:00:00 13.1 152.7 13.1 152.7 13.2 152.8 13.1 152.7
2001-12-22 18:00:00 13.9 151.5 13.9 151.5 13.9 151.5 13.9 151.5
2001-12-23 00:00:00 14.7 150.2 14.8 150.2 14.8 150.2 14.8 150.2
2001-12-23 06:00:00 15.6 149.1 15.7 149.1 15.6 149.1 15.6 149.1
2001-12-23 12:00:00 16.3 148.1 16.4 148.1 16.4 148.3 16.4 148.1
2001-12-23 18:00:00 17.3 147.1 17.3 147.2 17.3 147.3 17.3 147.2
2001-12-24 00:00:00 18.0 146.5 18.2 146.5 18.2 146.6 18.1 146.6
2001-12-24 06:00:00 19.1 146.2 19.2 146.3 19.3 146.3 19.1 146.2
2001-12-24 12:00:00 20.1 146.3 20.2 146.8 20.2 146.6 20.2 146.4
2001-12-24 18:00:00 21.6 147.2 21.8 147.3 21.8 147.3 21.6 147.4
2001-12-25 00:00:00 23.3 149.0 23.3 149.0 23.3 149.0 23.3 149.0
2001-12-25 06:00:00 25.2 151.4 25.3 151.5 25.4 151.5 25.4 151.5
jtwc_wp tokyo cma hko
2001-12-25 12:00:00 27.1 153.9 27.2 154.4 27.2 154.4 27.4 154.3
2001-12-25 18:00:00 29.1 158.1 29.6 158.5 29.6 158.5 29.8 159.0
2001-12-26 00:00:00 31.8 162.3 31.8 162.3
2001-12-26 06:00:00 32.1 166.2 32.1 166.2
2001-12-26 12:00:00 32.1 168.5 32.1 168.5

top of pageTrack Data:Intensity

jtwc_wp tokyo cma hko
Date Wind Pres Wind Pres Wind Pres Wind Pres
2001-12-13 06:00:00 20. 1004.
2001-12-13 12:00:00 25. 1002.
2001-12-13 18:00:00 25. 1002. 1006.
2001-12-14 00:00:00 30. 1000. 1008.
2001-12-14 06:00:00 30. 1000. 1004.
2001-12-14 12:00:00 30. 1000. 1004.
2001-12-14 18:00:00 30. 1000. 1002.
2001-12-15 00:00:00 35. 997. 1002. 23. 1002.
2001-12-15 06:00:00 35. 997. 1000. 23. 1002.
2001-12-15 12:00:00 35. 997. 1002. 23. 1002.
2001-12-15 18:00:00 35. 997. 1000. 23. 1002.
2001-12-16 00:00:00 35. 997. 1002. 29. 1000. 30. 1000.
2001-12-16 06:00:00 35. 997. 1000. 29. 1000. 30. 1000.
2001-12-16 12:00:00 35. 997. 1000. 29. 1000. 30. 1000.
2001-12-16 18:00:00 35. 997. 35. 998. 35. 998. 35. 998.
2001-12-17 00:00:00 35. 997. 35. 998. 35. 998. 35. 998.
2001-12-17 06:00:00 40. 994. 40. 994. 39. 995. 40. 994.
2001-12-17 12:00:00 45. 991. 40. 994. 39. 995. 40. 994.
2001-12-17 18:00:00 55. 984. 40. 992. 39. 995. 40. 994.
2001-12-18 00:00:00 55. 984. 40. 992. 39. 995. 40. 994.
2001-12-18 06:00:00 55. 984. 40. 992. 39. 995. 40. 994.
2001-12-18 12:00:00 55. 984. 40. 992. 39. 995. 40. 994.
2001-12-18 18:00:00 55. 984. 45. 990. 39. 995. 40. 994.
2001-12-19 00:00:00 55. 984. 45. 990. 39. 995. 40. 994.
2001-12-19 06:00:00 55. 984. 45. 990. 39. 995. 40. 994.
jtwc_wp tokyo cma hko
2001-12-19 12:00:00 55. 984. 45. 990. 39. 995. 40. 994.
2001-12-19 18:00:00 50. 987. 45. 990. 39. 995. 40. 994.
2001-12-20 00:00:00 45. 991. 45. 990. 45. 990. 45. 990.
2001-12-20 06:00:00 55. 984. 50. 985. 49. 990. 50. 985.
2001-12-20 12:00:00 60. 980. 50. 985. 49. 990. 50. 985.
2001-12-20 18:00:00 65. 976. 60. 975. 54. 985. 55. 980.
2001-12-21 00:00:00 75. 967. 65. 970. 64. 980. 65. 970.
2001-12-21 06:00:00 90. 954. 70. 965. 68. 970. 70. 965.
2001-12-21 12:00:00 105. 938. 75. 955. 78. 965. 75. 960.
2001-12-21 18:00:00 120. 922. 85. 945. 87. 955. 85. 950.
2001-12-22 00:00:00 135. 904. 90. 935. 97. 940. 95. 940.
2001-12-22 06:00:00 140. 898. 95. 925. 97. 940. 100. 935.
2001-12-22 12:00:00 140. 898. 100. 920. 107. 930. 105. 930.
2001-12-22 18:00:00 150. 885. 105. 915. 117. 925. 105. 930.
2001-12-23 00:00:00 155. 879. 105. 915. 117. 920. 110. 925.
2001-12-23 06:00:00 150. 885. 95. 925. 107. 930. 100. 935.
2001-12-23 12:00:00 140. 898. 85. 940. 97. 940. 95. 940.
2001-12-23 18:00:00 125. 916. 80. 950. 87. 955. 90. 945.
2001-12-24 00:00:00 115. 927. 80. 950. 87. 955. 85. 950.
2001-12-24 06:00:00 115. 927. 80. 950. 87. 955. 80. 955.
2001-12-24 12:00:00 105. 938. 75. 955. 78. 960. 75. 960.
2001-12-24 18:00:00 95. 949. 70. 960. 78. 960. 70. 965.
2001-12-25 00:00:00 85. 958. 65. 965. 68. 970. 65. 970.
2001-12-25 06:00:00 75. 967. 60. 970. 58. 980. 60. 975.
jtwc_wp tokyo cma hko
2001-12-25 12:00:00 70. 972. 55. 980. 54. 980. 55. 980.
2001-12-25 18:00:00 65. 976. 50. 985. 49. 985. 50. 985.
2001-12-26 00:00:00 992. 39. 995.
2001-12-26 06:00:00 996. 29. 998.
2001-12-26 12:00:00 1000. 23. 1000.

top of page Links to source data

Source Source file Format
jtwc_wp bwp332001.txt ATCF
tokyo bst_all.txt:Line=51077:FAXAI:125 JMA text table
cma CH2001BST.txt:Storm=29:Faxai CMA text table
hko tc-besttrack-data.txt:Line=29092:FAXAI HKO Text table